British Cirrus — 2IYG3 — position and weather

sailwx.info

Track history (hours):
 
Tides and Currents Weather Stations Pressure Air Temp Water Temp Dewpoint Dewpoint Depression Visibility Wind Speed Wind Dir Waves Ship Positions

British Cirrus

Last reported at 2017-Dec-16 16:20 UTC. Time now 2017-Dec-17 06:27 UTC.
Position N 36°01' W 005°18'.

Length 183 m; draft 10.8 m.

Type: Ship. MMSI: 235113761.

Date/timePositionNaut miles runAvg speedWind from/ knotsBaromVisibWave heightAir tempDewpointWater temp
2017-Dec-16 16:20N 36°01' W 005°18'7 0.3
2017-Dec-15 12:54N 35°58' W 005°27'  
2017-Dec-11 15:51N 49°57' W 003°02'3 9.2
2017-Dec-11 15:30N 49°58' W 002°58'5 8.6
2017-Dec-11 14:58N 50°00' W 002°51'4 8.3
2017-Dec-11 14:27N 50°01' W 002°45'10010.4
2017-Dec-11 04:45N 50°28' W 000°13'310.0
2017-Dec-11 04:30N 50°28' W 000°10'5 9.7
2017-Dec-11 04:00N 50°30' W 000°02'5 9.3
2017-Dec-11 03:29N 50°31' E 000°05'4 8.7
2017-Dec-11 03:00N 50°32' E 000°11'5 8.5
2017-Dec-11 02:28N 50°34' E 000°18'4 8.8
2017-Dec-11 01:59N 50°35' E 000°25'4 9.2
2017-Dec-11 01:30N 50°36' E 000°31'5 9.7
2017-Dec-11 01:00N 50°38' E 000°38'510.1
2017-Dec-11 00:30N 50°41' E 000°45'510.7
2017-Dec-11 00:00N 50°44' E 000°51'711.0
2017-Dec-10 23:24N 50°48' E 000°59'1511.1
2017-Dec-10 22:01N 50°59' E 001°18'110.9
2017-Dec-10 21:55N 50°60' E 001°19'410.5
2017-Dec-10 21:30N 51°02' E 001°24'5 9.7
2017-Dec-10 20:57N 51°06' E 001°31'4 8.8
2017-Dec-10 20:30N 51°08' E 001°36'4 8.1
2017-Dec-10 20:01N 51°11' E 001°41'4 7.9
2017-Dec-10 19:30N 51°13' E 001°45'4 7.6
2017-Dec-10 19:00N 51°17' E 001°48'4 7.8
2017-Dec-10 18:30N 51°20' E 001°51'4 7.8
2017-Dec-10 18:00N 51°24' E 001°54'4 7.7
2017-Dec-10 17:30N 51°27' E 001°56'4 8.0
2017-Dec-10 17:00N 51°30' E 002°01'4 8.0
2017-Dec-10 16:30N 51°33' E 002°05'94 8.0
2017-Dec-10 04:43N 52°31' E 004°05'2 8.9
2017-Dec-10 04:30N 52°31' E 004°08'4 8.8
2017-Dec-10 04:00N 52°31' E 004°15'4 8.7
2017-Dec-10 03:30N 52°30' E 004°22'4 7.9
2017-Dec-10 03:00N 52°28' E 004°28'4 8.5
2017-Dec-10 02:30N 52°28' E 004°35'1 1.7
2017-Dec-10 02:00N 52°28' E 004°37'1 2.7
2017-Dec-10 01:30N 52°28' E 004°39'3 6.1
2017-Dec-10 01:00N 52°26' E 004°43'2 4.7
2017-Dec-10 00:30N 52°25' E 004°46'0 0.7
2017-Dec-09 23:59N 52°25' E 004°47'0 0.0
2017-Dec-09 23:27N 52°25' E 004°47'0 0.0
2017-Dec-09 22:51N 52°25' E 004°47'0 0.0
2017-Dec-09 22:26N 52°25' E 004°47'0 0.0
2017-Dec-09 21:59N 52°25' E 004°47'0 0.0
2017-Dec-09 21:30N 52°25' E 004°47'0 0.0
2017-Dec-09 20:51N 52°25' E 004°47'0 0.0
2017-Dec-09 20:27N 52°25' E 004°47'0 0.0
2017-Dec-09 19:59N 52°25' E 004°47'0 0.0
2017-Dec-09 19:24N 52°25' E 004°47'0 0.0
2017-Dec-09 18:45N 52°25' E 004°47'0 0.0
2017-Dec-09 18:24N 52°25' E 004°47'0 0.0
2017-Dec-09 17:54N 52°25' E 004°47'0 0.0
2017-Dec-09 17:21N 52°25' E 004°47'0 0.0
2017-Dec-09 16:57N 52°25' E 004°47'0 0.0
2017-Dec-09 16:30N 52°25' E 004°47'0 0.0
2017-Dec-09 15:53N 52°25' E 004°47'0 0.0
2017-Dec-09 14:48N 52°25' E 004°47'0 0.0
2017-Dec-09 14:29N 52°25' E 004°47'0 0.0
2017-Dec-09 14:00N 52°25' E 004°47'0 0.0
2017-Dec-09 13:15N 52°25' E 004°47'0 0.0
2017-Dec-09 13:00N 52°25' E 004°47'0 0.0
2017-Dec-09 12:24N 52°25' E 004°47'0 0.0
2017-Dec-09 12:00N 52°25' E 004°47'0 0.0
2017-Dec-09 11:29N 52°25' E 004°47'0 0.0
2017-Dec-09 10:54N 52°25' E 004°47'0 0.0
2017-Dec-09 10:27N 52°25' E 004°47'0 0.0
2017-Dec-09 10:00N 52°25' E 004°47'0 0.0
2017-Dec-09 09:30N 52°25' E 004°47'0 0.0
2017-Dec-09 08:59N 52°25' E 004°47'0 0.0
2017-Dec-09 08:30N 52°25' E 004°47'0 0.0
2017-Dec-09 08:00N 52°25' E 004°47'0 0.0
2017-Dec-09 07:30N 52°25' E 004°47'0 0.0
2017-Dec-09 06:56N 52°25' E 004°47'0 0.0
2017-Dec-09 06:24N 52°25' E 004°47'0 0.0
2017-Dec-09 05:54N 52°25' E 004°47'0 0.0
2017-Dec-09 05:27N 52°25' E 004°47'0 0.0
2017-Dec-09 04:51N 52°25' E 004°47'0 0.0
2017-Dec-09 04:30N 52°25' E 004°47'0 0.0
2017-Dec-09 04:00N 52°25' E 004°47'0 0.0
2017-Dec-09 03:28N 52°25' E 004°47'0 0.0
2017-Dec-09 03:00N 52°25' E 004°47'0 0.0
2017-Dec-09 02:22N 52°25' E 004°47'0 0.0
2017-Dec-09 02:00N 52°25' E 004°47'0 0.0
2017-Dec-09 01:30N 52°25' E 004°47'0 0.0
2017-Dec-09 00:52N 52°25' E 004°47'0 0.0
2017-Dec-09 00:30N 52°25' E 004°47'0 0.0
2017-Dec-09 00:00N 52°25' E 004°47'0 0.0
2017-Dec-08 23:24N 52°25' E 004°47'0 0.0
2017-Dec-08 23:00N 52°25' E 004°47'0 0.0
2017-Dec-08 22:28N 52°25' E 004°47'0 0.0
2017-Dec-08 21:59N 52°25' E 004°47'0 0.0
2017-Dec-08 21:30N 52°25' E 004°47'0 0.0
2017-Dec-08 20:58N 52°25' E 004°47'0 0.0
2017-Dec-08 20:22N 52°25' E 004°47'0 0.0
2017-Dec-08 19:59N 52°25' E 004°47'0 0.0
2017-Dec-08 19:30N 52°25' E 004°47'0 0.0
2017-Dec-08 18:58N 52°25' E 004°47'0 0.0
2017-Dec-08 18:30N 52°25' E 004°47'0 0.0
2017-Dec-08 18:00N 52°25' E 004°47'0 0.0
2017-Dec-08 17:30N 52°25' E 004°47'0 0.0
2017-Dec-08 16:48N 52°25' E 004°47'0 0.0
2017-Dec-08 16:24N 52°25' E 004°47'0 0.0
2017-Dec-08 15:52N 52°25' E 004°47'0 0.0
2017-Dec-08 15:24N 52°25' E 004°47'0 0.0
2017-Dec-08 14:55N 52°25' E 004°47'0 0.0
2017-Dec-08 14:22N 52°25' E 004°47'0 0.0
2017-Dec-08 14:01N 52°25' E 004°47'0 0.0
2017-Dec-08 13:25N 52°25' E 004°47'0 0.0
2017-Dec-08 13:01N 52°25' E 004°47'0 0.0
2017-Dec-08 12:28N 52°25' E 004°47'0 0.0
2017-Dec-08 11:43N 52°25' E 004°47'0 0.0
2017-Dec-08 11:30N 52°25' E 004°47'0 0.0
2017-Dec-08 10:58N 52°25' E 004°47'0 0.0
2017-Dec-08 10:31N 52°25' E 004°47'0 0.0
2017-Dec-08 09:55N 52°25' E 004°47'0 0.0
2017-Dec-08 09:21N 52°25' E 004°47'0 0.0
2017-Dec-08 08:55N 52°25' E 004°47'0 0.0
2017-Dec-08 08:28N 52°25' E 004°47'0 0.0
2017-Dec-08 07:55N 52°25' E 004°47'0 0.0
2017-Dec-08 07:28N 52°25' E 004°47'0 0.0
2017-Dec-08 06:58N 52°25' E 004°47'0 0.0
2017-Dec-08 06:30N 52°25' E 004°47'0 0.0
2017-Dec-08 06:00N 52°25' E 004°47'0 0.0
2017-Dec-08 05:18N 52°25' E 004°47'0 0.0
2017-Dec-08 04:55N 52°25' E 004°47'0 0.0
2017-Dec-08 04:24N 52°25' E 004°47'0 0.0
2017-Dec-08 03:58N 52°25' E 004°47'0 0.0
2017-Dec-08 03:25N 52°25' E 004°47'0 0.0
2017-Dec-08 03:00N 52°25' E 004°47'0 0.0
2017-Dec-08 02:24N 52°25' E 004°47'0 0.0
2017-Dec-08 02:00N 52°25' E 004°47'0 0.0
2017-Dec-08 01:28N 52°25' E 004°47'0 0.0
2017-Dec-08 00:58N 52°25' E 004°47'0 0.0
2017-Dec-08 00:24N 52°25' E 004°47'0 0.0
2017-Dec-07 23:55N 52°25' E 004°47'0 0.0
2017-Dec-07 23:22N 52°25' E 004°47'0 0.0
2017-Dec-07 22:55N 52°25' E 004°47'0 0.0
2017-Dec-07 22:31N 52°25' E 004°47'0 0.0
2017-Dec-07 21:57N 52°25' E 004°47'0 0.0
2017-Dec-07 21:19N 52°25' E 004°47'0 0.0
2017-Dec-07 20:58N 52°25' E 004°47'0 0.0
2017-Dec-07 20:30N 52°25' E 004°47'0 0.0
2017-Dec-07 19:43N 52°25' E 004°47'0 0.0
2017-Dec-07 19:30N 52°25' E 004°47'0 0.0
2017-Dec-07 18:58N 52°25' E 004°47'0 0.0
2017-Dec-07 18:25N 52°25' E 004°47'0 0.0
2017-Dec-07 17:58N 52°25' E 004°47'0 0.0
2017-Dec-07 17:15N 52°25' E 004°47'0 0.0
2017-Dec-07 16:49N 52°25' E 004°47'0 0.0
2017-Dec-07 16:19N 52°25' E 004°47'0 0.0
2017-Dec-07 16:00N 52°25' E 004°47'0 0.0
2017-Dec-07 15:25N 52°25' E 004°47'0 0.0
2017-Dec-07 14:51N 52°25' E 004°47'0 0.0
2017-Dec-07 14:12N 52°25' E 004°47'0 0.0
2017-Dec-07 13:58N 52°25' E 004°47'0 0.0
2017-Dec-07 13:19N 52°25' E 004°47'0 0.0
2017-Dec-07 12:52N 52°25' E 004°47'0 0.0
2017-Dec-07 12:22N 52°25' E 004°47'0 0.0
2017-Dec-07 12:01N 52°25' E 004°47'0 0.0
2017-Dec-07 11:31N 52°25' E 004°47'0 0.0
2017-Dec-07 10:42N 52°25' E 004°47'0 0.0
2017-Dec-07 09:40N 52°25' E 004°47'0 0.0
2017-Dec-07 09:24N 52°25' E 004°47'0 0.0
2017-Dec-07 08:49N 52°25' E 004°47'0 0.0
2017-Dec-07 08:28N 52°25' E 004°47'0 0.0
2017-Dec-07 07:57N 52°25' E 004°47'0 0.0
2017-Dec-07 07:28N 52°25' E 004°47'0 0.0
2017-Dec-07 06:52N 52°25' E 004°47'0 0.0
2017-Dec-07 06:28N 52°25' E 004°47'0 0.0
2017-Dec-07 05:55N 52°25' E 004°47'0 0.0
2017-Dec-07 05:28N 52°25' E 004°47'0 0.0
2017-Dec-07 04:58N 52°25' E 004°47'0 0.0
2017-Dec-07 04:16N 52°25' E 004°47'0 0.0
2017-Dec-07 03:57N 52°25' E 004°47'0 0.0
2017-Dec-07 03:30N 52°25' E 004°47'0 0.0
2017-Dec-07 02:58N 52°25' E 004°47'0 0.0
2017-Dec-07 02:28N 52°25' E 004°47'0 0.0
2017-Dec-07 01:58N 52°25' E 004°47'0 0.0
2017-Dec-07 01:14N 52°25' E 004°47'0 0.0
2017-Dec-07 00:58N 52°25' E 004°47'0 0.0
2017-Dec-07 00:15N 52°25' E 004°47'0 0.0
2017-Dec-06 23:58N 52°25' E 004°47'0 0.0
2017-Dec-06 23:25N 52°25' E 004°47'0 0.0
2017-Dec-06 22:38N 52°25' E 004°47'0 0.0
2017-Dec-06 22:20N 52°25' E 004°47'0 0.0
2017-Dec-06 21:58N 52°25' E 004°47'0 0.0
2017-Dec-06 21:25N 52°25' E 004°47'0 0.0
2017-Dec-06 20:57N 52°25' E 004°47'  
Track history (hours):
 
Tides and Currents Weather Stations Pressure Air Temp Water Temp Dewpoint Dewpoint Depression Visibility Wind Speed Wind Dir Waves Ship Positions

British Cirrus

Last reported at 2017-Dec-16 16:20 UTC. Time now 2017-Dec-17 06:27 UTC.
Position N 36°01' W 005°18'.

Length 183 m; draft 10.8 m.

Type: Ship. MMSI: 235113761.

Date/timePositionNaut miles runAvg speedWind from/ knotsBaromVisibWave heightAir tempDewpointWater temp
2017-Dec-16 16:20N 36°01' W 005°18'7 0.3
2017-Dec-15 12:54N 35°58' W 005°27'  
2017-Dec-11 15:51N 49°57' W 003°02'3 9.2
2017-Dec-11 15:30N 49°58' W 002°58'5 8.6
2017-Dec-11 14:58N 50°00' W 002°51'4 8.3
2017-Dec-11 14:27N 50°01' W 002°45'10010.4
2017-Dec-11 04:45N 50°28' W 000°13'310.0
2017-Dec-11 04:30N 50°28' W 000°10'5 9.7
2017-Dec-11 04:00N 50°30' W 000°02'5 9.3
2017-Dec-11 03:29N 50°31' E 000°05'4 8.7
2017-Dec-11 03:00N 50°32' E 000°11'5 8.5
2017-Dec-11 02:28N 50°34' E 000°18'4 8.8
2017-Dec-11 01:59N 50°35' E 000°25'4 9.2
2017-Dec-11 01:30N 50°36' E 000°31'5 9.7
2017-Dec-11 01:00N 50°38' E 000°38'510.1
2017-Dec-11 00:30N 50°41' E 000°45'510.7
2017-Dec-11 00:00N 50°44' E 000°51'711.0
2017-Dec-10 23:24N 50°48' E 000°59'1511.1
2017-Dec-10 22:01N 50°59' E 001°18'110.9
2017-Dec-10 21:55N 50°60' E 001°19'410.5
2017-Dec-10 21:30N 51°02' E 001°24'5 9.7
2017-Dec-10 20:57N 51°06' E 001°31'4 8.8
2017-Dec-10 20:30N 51°08' E 001°36'4 8.1
2017-Dec-10 20:01N 51°11' E 001°41'4 7.9
2017-Dec-10 19:30N 51°13' E 001°45'4 7.6
2017-Dec-10 19:00N 51°17' E 001°48'4 7.8
2017-Dec-10 18:30N 51°20' E 001°51'4 7.8
2017-Dec-10 18:00N 51°24' E 001°54'4 7.7
2017-Dec-10 17:30N 51°27' E 001°56'4 8.0
2017-Dec-10 17:00N 51°30' E 002°01'4 8.0
2017-Dec-10 16:30N 51°33' E 002°05'94 8.0
2017-Dec-10 04:43N 52°31' E 004°05'2 8.9
2017-Dec-10 04:30N 52°31' E 004°08'4 8.8
2017-Dec-10 04:00N 52°31' E 004°15'4 8.7
2017-Dec-10 03:30N 52°30' E 004°22'4 7.9
2017-Dec-10 03:00N 52°28' E 004°28'4 8.5
2017-Dec-10 02:30N 52°28' E 004°35'1 1.7
2017-Dec-10 02:00N 52°28' E 004°37'1 2.7
2017-Dec-10 01:30N 52°28' E 004°39'3 6.1
2017-Dec-10 01:00N 52°26' E 004°43'2 4.7
2017-Dec-10 00:30N 52°25' E 004°46'0 0.7
2017-Dec-09 23:59N 52°25' E 004°47'0 0.0
2017-Dec-09 23:27N 52°25' E 004°47'0 0.0
2017-Dec-09 22:51N 52°25' E 004°47'0 0.0
2017-Dec-09 22:26N 52°25' E 004°47'0 0.0
2017-Dec-09 21:59N 52°25' E 004°47'0 0.0
2017-Dec-09 21:30N 52°25' E 004°47'0 0.0
2017-Dec-09 20:51N 52°25' E 004°47'0 0.0
2017-Dec-09 20:27N 52°25' E 004°47'0 0.0
2017-Dec-09 19:59N 52°25' E 004°47'0 0.0
2017-Dec-09 19:24N 52°25' E 004°47'0 0.0
2017-Dec-09 18:45N 52°25' E 004°47'0 0.0
2017-Dec-09 18:24N 52°25' E 004°47'0 0.0
2017-Dec-09 17:54N 52°25' E 004°47'0 0.0
2017-Dec-09 17:21N 52°25' E 004°47'0 0.0
2017-Dec-09 16:57N 52°25' E 004°47'0 0.0
2017-Dec-09 16:30N 52°25' E 004°47'0 0.0
2017-Dec-09 15:53N 52°25' E 004°47'0 0.0
2017-Dec-09 14:48N 52°25' E 004°47'0 0.0
2017-Dec-09 14:29N 52°25' E 004°47'0 0.0
2017-Dec-09 14:00N 52°25' E 004°47'0 0.0
2017-Dec-09 13:15N 52°25' E 004°47'0 0.0
2017-Dec-09 13:00N 52°25' E 004°47'0 0.0
2017-Dec-09 12:24N 52°25' E 004°47'0 0.0
2017-Dec-09 12:00N 52°25' E 004°47'0 0.0
2017-Dec-09 11:29N 52°25' E 004°47'0 0.0
2017-Dec-09 10:54N 52°25' E 004°47'0 0.0
2017-Dec-09 10:27N 52°25' E 004°47'0 0.0
2017-Dec-09 10:00N 52°25' E 004°47'0 0.0
2017-Dec-09 09:30N 52°25' E 004°47'0 0.0
2017-Dec-09 08:59N 52°25' E 004°47'0 0.0
2017-Dec-09 08:30N 52°25' E 004°47'0 0.0
2017-Dec-09 08:00N 52°25' E 004°47'0 0.0
2017-Dec-09 07:30N 52°25' E 004°47'0 0.0
2017-Dec-09 06:56N 52°25' E 004°47'0 0.0
2017-Dec-09 06:24N 52°25' E 004°47'0 0.0
2017-Dec-09 05:54N 52°25' E 004°47'0 0.0
2017-Dec-09 05:27N 52°25' E 004°47'0 0.0
2017-Dec-09 04:51N 52°25' E 004°47'0 0.0
2017-Dec-09 04:30N 52°25' E 004°47'0 0.0
2017-Dec-09 04:00N 52°25' E 004°47'0 0.0
2017-Dec-09 03:28N 52°25' E 004°47'0 0.0
2017-Dec-09 03:00N 52°25' E 004°47'0 0.0
2017-Dec-09 02:22N 52°25' E 004°47'0 0.0
2017-Dec-09 02:00N 52°25' E 004°47'0 0.0
2017-Dec-09 01:30N 52°25' E 004°47'0 0.0
2017-Dec-09 00:52N 52°25' E 004°47'0 0.0
2017-Dec-09 00:30N 52°25' E 004°47'0 0.0
2017-Dec-09 00:00N 52°25' E 004°47'0 0.0
2017-Dec-08 23:24N 52°25' E 004°47'0 0.0
2017-Dec-08 23:00N 52°25' E 004°47'0 0.0
2017-Dec-08 22:28N 52°25' E 004°47'0 0.0
2017-Dec-08 21:59N 52°25' E 004°47'0 0.0
2017-Dec-08 21:30N 52°25' E 004°47'0 0.0
2017-Dec-08 20:58N 52°25' E 004°47'0 0.0
2017-Dec-08 20:22N 52°25' E 004°47'0 0.0
2017-Dec-08 19:59N 52°25' E 004°47'0 0.0
2017-Dec-08 19:30N 52°25' E 004°47'0 0.0
2017-Dec-08 18:58N 52°25' E 004°47'0 0.0
2017-Dec-08 18:30N 52°25' E 004°47'0 0.0
2017-Dec-08 18:00N 52°25' E 004°47'0 0.0
2017-Dec-08 17:30N 52°25' E 004°47'0 0.0
2017-Dec-08 16:48N 52°25' E 004°47'0 0.0
2017-Dec-08 16:24N 52°25' E 004°47'0 0.0
2017-Dec-08 15:52N 52°25' E 004°47'0 0.0
2017-Dec-08 15:24N 52°25' E 004°47'0 0.0
2017-Dec-08 14:55N 52°25' E 004°47'0 0.0
2017-Dec-08 14:22N 52°25' E 004°47'0 0.0
2017-Dec-08 14:01N 52°25' E 004°47'0 0.0
2017-Dec-08 13:25N 52°25' E 004°47'0 0.0
2017-Dec-08 13:01N 52°25' E 004°47'0 0.0
2017-Dec-08 12:28N 52°25' E 004°47'0 0.0
2017-Dec-08 11:43N 52°25' E 004°47'0 0.0
2017-Dec-08 11:30N 52°25' E 004°47'0 0.0
2017-Dec-08 10:58N 52°25' E 004°47'0 0.0
2017-Dec-08 10:31N 52°25' E 004°47'0 0.0
2017-Dec-08 09:55N 52°25' E 004°47'0 0.0
2017-Dec-08 09:21N 52°25' E 004°47'0 0.0
2017-Dec-08 08:55N 52°25' E 004°47'0 0.0
2017-Dec-08 08:28N 52°25' E 004°47'0 0.0
2017-Dec-08 07:55N 52°25' E 004°47'0 0.0
2017-Dec-08 07:28N 52°25' E 004°47'0 0.0
2017-Dec-08 06:58N 52°25' E 004°47'0 0.0
2017-Dec-08 06:30N 52°25' E 004°47'0 0.0
2017-Dec-08 06:00N 52°25' E 004°47'0 0.0
2017-Dec-08 05:18N 52°25' E 004°47'0 0.0
2017-Dec-08 04:55N 52°25' E 004°47'0 0.0
2017-Dec-08 04:24N 52°25' E 004°47'0 0.0
2017-Dec-08 03:58N 52°25' E 004°47'0 0.0
2017-Dec-08 03:25N 52°25' E 004°47'0 0.0
2017-Dec-08 03:00N 52°25' E 004°47'0 0.0
2017-Dec-08 02:24N 52°25' E 004°47'0 0.0
2017-Dec-08 02:00N 52°25' E 004°47'0 0.0
2017-Dec-08 01:28N 52°25' E 004°47'0 0.0
2017-Dec-08 00:58N 52°25' E 004°47'0 0.0
2017-Dec-08 00:24N 52°25' E 004°47'0 0.0
2017-Dec-07 23:55N 52°25' E 004°47'0 0.0
2017-Dec-07 23:22N 52°25' E 004°47'0 0.0
2017-Dec-07 22:55N 52°25' E 004°47'0 0.0
2017-Dec-07 22:31N 52°25' E 004°47'0 0.0
2017-Dec-07 21:57N 52°25' E 004°47'0 0.0
2017-Dec-07 21:19N 52°25' E 004°47'0 0.0
2017-Dec-07 20:58N 52°25' E 004°47'0 0.0
2017-Dec-07 20:30N 52°25' E 004°47'0 0.0
2017-Dec-07 19:43N 52°25' E 004°47'0 0.0
2017-Dec-07 19:30N 52°25' E 004°47'0 0.0
2017-Dec-07 18:58N 52°25' E 004°47'0 0.0
2017-Dec-07 18:25N 52°25' E 004°47'0 0.0
2017-Dec-07 17:58N 52°25' E 004°47'0 0.0
2017-Dec-07 17:15N 52°25' E 004°47'0 0.0
2017-Dec-07 16:49N 52°25' E 004°47'0 0.0
2017-Dec-07 16:19N 52°25' E 004°47'0 0.0
2017-Dec-07 16:00N 52°25' E 004°47'0 0.0
2017-Dec-07 15:25N 52°25' E 004°47'0 0.0
2017-Dec-07 14:51N 52°25' E 004°47'0 0.0
2017-Dec-07 14:12N 52°25' E 004°47'0 0.0
2017-Dec-07 13:58N 52°25' E 004°47'0 0.0
2017-Dec-07 13:19N 52°25' E 004°47'0 0.0
2017-Dec-07 12:52N 52°25' E 004°47'0 0.0
2017-Dec-07 12:22N 52°25' E 004°47'0 0.0
2017-Dec-07 12:01N 52°25' E 004°47'0 0.0
2017-Dec-07 11:31N 52°25' E 004°47'0 0.0
2017-Dec-07 10:42N 52°25' E 004°47'0 0.0
2017-Dec-07 09:40N 52°25' E 004°47'0 0.0
2017-Dec-07 09:24N 52°25' E 004°47'0 0.0
2017-Dec-07 08:49N 52°25' E 004°47'0 0.0
2017-Dec-07 08:28N 52°25' E 004°47'0 0.0
2017-Dec-07 07:57N 52°25' E 004°47'0 0.0
2017-Dec-07 07:28N 52°25' E 004°47'0 0.0
2017-Dec-07 06:52N 52°25' E 004°47'0 0.0
2017-Dec-07 06:28N 52°25' E 004°47'0 0.0
2017-Dec-07 05:55N 52°25' E 004°47'0 0.0
2017-Dec-07 05:28N 52°25' E 004°47'0 0.0
2017-Dec-07 04:58N 52°25' E 004°47'0 0.0
2017-Dec-07 04:16N 52°25' E 004°47'0 0.0
2017-Dec-07 03:57N 52°25' E 004°47'0 0.0
2017-Dec-07 03:30N 52°25' E 004°47'0 0.0
2017-Dec-07 02:58N 52°25' E 004°47'0 0.0
2017-Dec-07 02:28N 52°25' E 004°47'0 0.0
2017-Dec-07 01:58N 52°25' E 004°47'0 0.0
2017-Dec-07 01:14N 52°25' E 004°47'0 0.0
2017-Dec-07 00:58N 52°25' E 004°47'0 0.0
2017-Dec-07 00:15N 52°25' E 004°47'0 0.0
2017-Dec-06 23:58N 52°25' E 004°47'0 0.0
2017-Dec-06 23:25N 52°25' E 004°47'0 0.0
2017-Dec-06 22:38N 52°25' E 004°47'0 0.0
2017-Dec-06 22:20N 52°25' E 004°47'0 0.0
2017-Dec-06 21:58N 52°25' E 004°47'0 0.0
2017-Dec-06 21:25N 52°25' E 004°47'0 0.0
2017-Dec-06 20:57N 52°25' E 004°47'  

Dump ship's entire track history